sensor_id;sensor_type;location;lat;lon;timestamp;P1;durP1;ratioP1;P2;durP2;ratioP2
4232;SDS011;2130;48.472;11.934;2023-03-05T00:00:24;37.77;;;5.37;;
4232;SDS011;2130;48.472;11.934;2023-03-05T00:03:13;29.10;;;4.00;;
4232;SDS011;2130;48.472;11.934;2023-03-05T00:06:04;32.00;;;4.30;;
4232;SDS011;2130;48.472;11.934;2023-03-05T00:08:53;30.77;;;4.53;;
4232;SDS011;2130;48.472;11.934;2023-03-05T00:11:44;30.77;;;5.07;;
4232;SDS011;2130;48.472;11.934;2023-03-05T00:14:33;29.70;;;3.20;;
4232;SDS011;2130;48.472;11.934;2023-03-05T00:17:22;31.00;;;4.23;;
4232;SDS011;2130;48.472;11.934;2023-03-05T00:20:11;29.33;;;3.50;;
4232;SDS011;2130;48.472;11.934;2023-03-05T00:23:01;33.30;;;5.10;;
4232;SDS011;2130;48.472;11.934;2023-03-05T00:25:51;30.70;;;4.30;;
4232;SDS011;2130;48.472;11.934;2023-03-05T00:28:40;29.67;;;4.57;;
4232;SDS011;2130;48.472;11.934;2023-03-05T00:31:29;31.80;;;4.47;;
4232;SDS011;2130;48.472;11.934;2023-03-05T00:34:20;30.13;;;4.33;;
4232;SDS011;2130;48.472;11.934;2023-03-05T00:37:10;29.97;;;4.40;;
4232;SDS011;2130;48.472;11.934;2023-03-05T00:40:02;27.63;;;3.63;;
4232;SDS011;2130;48.472;11.934;2023-03-05T00:42:52;27.90;;;3.13;;
4232;SDS011;2130;48.472;11.934;2023-03-05T00:45:41;37.20;;;4.50;;
4232;SDS011;2130;48.472;11.934;2023-03-05T00:48:29;39.53;;;4.47;;
4232;SDS011;2130;48.472;11.934;2023-03-05T00:51:19;39.83;;;5.03;;
4232;SDS011;2130;48.472;11.934;2023-03-05T00:54:09;28.00;;;3.40;;
4232;SDS011;2130;48.472;11.934;2023-03-05T00:57:00;36.10;;;5.10;;
4232;SDS011;2130;48.472;11.934;2023-03-05T00:59:49;29.73;;;4.10;;
4232;SDS011;2130;48.472;11.934;2023-03-05T01:02:38;31.17;;;4.30;;
4232;SDS011;2130;48.472;11.934;2023-03-05T01:05:27;35.83;;;5.20;;
4232;SDS011;2130;48.472;11.934;2023-03-05T01:08:16;36.97;;;6.00;;
4232;SDS011;2130;48.472;11.934;2023-03-05T01:11:06;30.20;;;4.63;;
4232;SDS011;2130;48.472;11.934;2023-03-05T01:13:57;34.83;;;4.00;;
4232;SDS011;2130;48.472;11.934;2023-03-05T01:16:47;35.23;;;4.73;;
4232;SDS011;2130;48.472;11.934;2023-03-05T01:19:37;30.37;;;4.90;;
4232;SDS011;2130;48.472;11.934;2023-03-05T01:22:26;31.60;;;4.13;;
4232;SDS011;2130;48.472;11.934;2023-03-05T01:25:15;33.67;;;5.60;;
4232;SDS011;2130;48.472;11.934;2023-03-05T01:28:05;34.13;;;5.10;;
4232;SDS011;2130;48.472;11.934;2023-03-05T01:30:55;30.30;;;3.90;;
4232;SDS011;2130;48.472;11.934;2023-03-05T01:33:44;36.13;;;5.33;;
4232;SDS011;2130;48.472;11.934;2023-03-05T01:36:33;33.10;;;4.47;;
4232;SDS011;2130;48.472;11.934;2023-03-05T01:39:22;31.40;;;4.57;;
4232;SDS011;2130;48.472;11.934;2023-03-05T01:42:11;30.30;;;4.63;;
4232;SDS011;2130;48.472;11.934;2023-03-05T01:45:02;32.20;;;4.90;;
4232;SDS011;2130;48.472;11.934;2023-03-05T01:47:54;31.27;;;4.53;;
4232;SDS011;2130;48.472;11.934;2023-03-05T01:50:44;31.50;;;4.23;;
4232;SDS011;2130;48.472;11.934;2023-03-05T01:53:33;33.77;;;5.67;;
4232;SDS011;2130;48.472;11.934;2023-03-05T01:56:22;34.70;;;4.93;;
4232;SDS011;2130;48.472;11.934;2023-03-05T01:59:11;39.67;;;5.10;;
4232;SDS011;2130;48.472;11.934;2023-03-05T02:02:01;34.40;;;4.43;;
4232;SDS011;2130;48.472;11.934;2023-03-05T02:04:54;31.87;;;4.87;;
4232;SDS011;2130;48.472;11.934;2023-03-05T02:07:45;33.70;;;4.80;;
4232;SDS011;2130;48.472;11.934;2023-03-05T02:10:35;32.33;;;5.50;;
4232;SDS011;2130;48.472;11.934;2023-03-05T02:13:26;34.63;;;5.93;;
4232;SDS011;2130;48.472;11.934;2023-03-05T02:16:16;33.13;;;4.87;;
4232;SDS011;2130;48.472;11.934;2023-03-05T02:19:06;33.83;;;5.30;;
4232;SDS011;2130;48.472;11.934;2023-03-05T02:21:59;34.97;;;4.40;;
4232;SDS011;2130;48.472;11.934;2023-03-05T02:24:48;35.03;;;5.03;;
4232;SDS011;2130;48.472;11.934;2023-03-05T02:27:39;33.60;;;4.90;;
4232;SDS011;2130;48.472;11.934;2023-03-05T02:30:28;40.83;;;5.93;;
4232;SDS011;2130;48.472;11.934;2023-03-05T02:33:17;32.13;;;4.50;;
4232;SDS011;2130;48.472;11.934;2023-03-05T02:36:08;30.53;;;4.70;;
4232;SDS011;2130;48.472;11.934;2023-03-05T02:39:00;30.47;;;4.80;;
4232;SDS011;2130;48.472;11.934;2023-03-05T02:41:49;33.33;;;4.60;;
4232;SDS011;2130;48.472;11.934;2023-03-05T02:44:38;32.73;;;5.27;;
4232;SDS011;2130;48.472;11.934;2023-03-05T02:47:27;33.20;;;4.93;;
4232;SDS011;2130;48.472;11.934;2023-03-05T02:50:16;34.50;;;4.77;;
4232;SDS011;2130;48.472;11.934;2023-03-05T02:53:06;32.93;;;5.37;;
4232;SDS011;2130;48.472;11.934;2023-03-05T02:55:58;34.00;;;5.27;;
4232;SDS011;2130;48.472;11.934;2023-03-05T02:58:48;29.70;;;3.93;;
4232;SDS011;2130;48.472;11.934;2023-03-05T03:01:37;31.70;;;4.70;;
4232;SDS011;2130;48.472;11.934;2023-03-05T03:04:26;36.40;;;5.67;;
4232;SDS011;2130;48.472;11.934;2023-03-05T03:07:15;35.53;;;5.23;;
4232;SDS011;2130;48.472;11.934;2023-03-05T03:10:05;32.63;;;5.90;;
4232;SDS011;2130;48.472;11.934;2023-03-05T03:12:56;33.70;;;4.83;;
4232;SDS011;2130;48.472;11.934;2023-03-05T03:15:45;33.70;;;5.33;;
4232;SDS011;2130;48.472;11.934;2023-03-05T03:18:34;40.30;;;6.10;;
4232;SDS011;2130;48.472;11.934;2023-03-05T03:21:23;33.73;;;4.07;;
4232;SDS011;2130;48.472;11.934;2023-03-05T03:24:13;34.20;;;4.87;;
4232;SDS011;2130;48.472;11.934;2023-03-05T03:27:02;37.43;;;5.40;;
4232;SDS011;2130;48.472;11.934;2023-03-05T03:29:52;32.73;;;4.80;;
4232;SDS011;2130;48.472;11.934;2023-03-05T03:32:41;32.73;;;4.67;;
4232;SDS011;2130;48.472;11.934;2023-03-05T03:35:31;32.17;;;4.67;;
4232;SDS011;2130;48.472;11.934;2023-03-05T03:38:23;35.63;;;4.70;;
4232;SDS011;2130;48.472;11.934;2023-03-05T03:41:12;31.80;;;3.90;;
4232;SDS011;2130;48.472;11.934;2023-03-05T03:44:01;33.03;;;4.37;;
4232;SDS011;2130;48.472;11.934;2023-03-05T03:46:52;32.47;;;4.37;;
4232;SDS011;2130;48.472;11.934;2023-03-05T03:49:41;32.70;;;4.53;;
4232;SDS011;2130;48.472;11.934;2023-03-05T03:52:30;34.87;;;6.23;;
4232;SDS011;2130;48.472;11.934;2023-03-05T03:55:19;28.23;;;3.60;;
4232;SDS011;2130;48.472;11.934;2023-03-05T03:58:09;36.30;;;4.90;;
4232;SDS011;2130;48.472;11.934;2023-03-05T04:00:58;30.33;;;4.13;;
4232;SDS011;2130;48.472;11.934;2023-03-05T04:03:49;29.77;;;4.73;;
4232;SDS011;2130;48.472;11.934;2023-03-05T04:06:39;32.30;;;4.67;;
4232;SDS011;2130;48.472;11.934;2023-03-05T04:09:28;35.47;;;5.33;;
4232;SDS011;2130;48.472;11.934;2023-03-05T04:12:17;33.17;;;5.17;;
4232;SDS011;2130;48.472;11.934;2023-03-05T04:15:07;34.67;;;4.90;;
4232;SDS011;2130;48.472;11.934;2023-03-05T04:17:58;35.63;;;6.70;;
4232;SDS011;2130;48.472;11.934;2023-03-05T04:20:49;40.13;;;6.30;;
4232;SDS011;2130;48.472;11.934;2023-03-05T04:23:41;31.20;;;4.47;;
4232;SDS011;2130;48.472;11.934;2023-03-05T04:26:31;32.97;;;4.27;;
4232;SDS011;2130;48.472;11.934;2023-03-05T04:29:20;36.17;;;5.40;;
4232;SDS011;2130;48.472;11.934;2023-03-05T04:32:09;32.67;;;5.00;;
4232;SDS011;2130;48.472;11.934;2023-03-05T04:34:58;37.17;;;5.33;;
4232;SDS011;2130;48.472;11.934;2023-03-05T04:37:52;31.70;;;4.13;;
4232;SDS011;2130;48.472;11.934;2023-03-05T04:40:41;32.30;;;4.00;;
4232;SDS011;2130;48.472;11.934;2023-03-05T04:43:41;31.77;;;4.37;;
4232;SDS011;2130;48.472;11.934;2023-03-05T04:46:30;31.20;;;4.80;;
4232;SDS011;2130;48.472;11.934;2023-03-05T04:49:19;32.23;;;5.00;;
4232;SDS011;2130;48.472;11.934;2023-03-05T04:52:09;31.73;;;4.67;;
4232;SDS011;2130;48.472;11.934;2023-03-05T04:55:00;33.00;;;4.53;;
4232;SDS011;2130;48.472;11.934;2023-03-05T04:57:50;34.00;;;5.47;;
4232;SDS011;2130;48.472;11.934;2023-03-05T05:00:39;30.37;;;4.77;;
4232;SDS011;2130;48.472;11.934;2023-03-05T05:03:29;36.57;;;5.30;;
4232;SDS011;2130;48.472;11.934;2023-03-05T05:06:20;34.40;;;4.87;;
4232;SDS011;2130;48.472;11.934;2023-03-05T05:09:09;31.70;;;4.50;;
4232;SDS011;2130;48.472;11.934;2023-03-05T05:12:00;32.00;;;5.20;;
4232;SDS011;2130;48.472;11.934;2023-03-05T05:14:49;42.40;;;7.13;;
4232;SDS011;2130;48.472;11.934;2023-03-05T05:17:39;31.87;;;4.73;;
4232;SDS011;2130;48.472;11.934;2023-03-05T05:20:28;31.37;;;4.90;;
4232;SDS011;2130;48.472;11.934;2023-03-05T05:23:17;36.50;;;5.23;;
4232;SDS011;2130;48.472;11.934;2023-03-05T05:26:08;32.17;;;4.47;;
4232;SDS011;2130;48.472;11.934;2023-03-05T05:29:02;32.03;;;5.17;;
4232;SDS011;2130;48.472;11.934;2023-03-05T05:31:51;30.43;;;5.43;;
4232;SDS011;2130;48.472;11.934;2023-03-05T05:34:40;32.90;;;4.70;;
4232;SDS011;2130;48.472;11.934;2023-03-05T05:37:29;35.17;;;4.23;;
4232;SDS011;2130;48.472;11.934;2023-03-05T05:40:18;33.67;;;4.63;;
4232;SDS011;2130;48.472;11.934;2023-03-05T05:43:08;31.97;;;4.90;;
4232;SDS011;2130;48.472;11.934;2023-03-05T05:45:59;31.53;;;4.40;;
4232;SDS011;2130;48.472;11.934;2023-03-05T05:48:49;35.20;;;5.70;;
4232;SDS011;2130;48.472;11.934;2023-03-05T05:51:39;31.37;;;4.00;;
4232;SDS011;2130;48.472;11.934;2023-03-05T05:54:31;35.90;;;5.03;;
4232;SDS011;2130;48.472;11.934;2023-03-05T05:57:20;44.00;;;5.50;;
4232;SDS011;2130;48.472;11.934;2023-03-05T06:00:12;29.90;;;4.43;;
4232;SDS011;2130;48.472;11.934;2023-03-05T06:03:03;32.00;;;5.23;;
4232;SDS011;2130;48.472;11.934;2023-03-05T06:05:54;34.07;;;6.00;;
4232;SDS011;2130;48.472;11.934;2023-03-05T06:08:43;29.40;;;4.33;;
4232;SDS011;2130;48.472;11.934;2023-03-05T06:11:32;34.77;;;5.90;;
4232;SDS011;2130;48.472;11.934;2023-03-05T06:14:22;33.00;;;4.97;;
4232;SDS011;2130;48.472;11.934;2023-03-05T06:17:11;30.73;;;4.43;;
4232;SDS011;2130;48.472;11.934;2023-03-05T06:20:13;31.00;;;4.70;;
4232;SDS011;2130;48.472;11.934;2023-03-05T06:23:03;41.27;;;5.50;;
4232;SDS011;2130;48.472;11.934;2023-03-05T06:25:53;32.30;;;5.37;;
4232;SDS011;2130;48.472;11.934;2023-03-05T06:28:46;37.40;;;4.90;;
4232;SDS011;2130;48.472;11.934;2023-03-05T06:31:38;36.10;;;5.10;;
4232;SDS011;2130;48.472;11.934;2023-03-05T06:34:31;32.70;;;4.67;;
4232;SDS011;2130;48.472;11.934;2023-03-05T06:37:21;31.40;;;5.30;;
4232;SDS011;2130;48.472;11.934;2023-03-05T06:40:11;31.77;;;4.20;;
4232;SDS011;2130;48.472;11.934;2023-03-05T06:43:01;31.83;;;5.30;;
4232;SDS011;2130;48.472;11.934;2023-03-05T06:45:59;32.93;;;5.40;;
4232;SDS011;2130;48.472;11.934;2023-03-05T06:48:50;31.67;;;5.80;;
4232;SDS011;2130;48.472;11.934;2023-03-05T06:51:40;32.23;;;4.47;;
4232;SDS011;2130;48.472;11.934;2023-03-05T06:54:32;34.27;;;5.60;;
4232;SDS011;2130;48.472;11.934;2023-03-05T06:57:21;32.80;;;4.30;;
4232;SDS011;2130;48.472;11.934;2023-03-05T07:00:11;32.70;;;5.13;;
4232;SDS011;2130;48.472;11.934;2023-03-05T07:03:01;36.83;;;4.83;;
4232;SDS011;2130;48.472;11.934;2023-03-05T07:05:50;29.47;;;5.33;;
4232;SDS011;2130;48.472;11.934;2023-03-05T07:08:39;39.17;;;5.70;;
4232;SDS011;2130;48.472;11.934;2023-03-05T07:11:34;41.00;;;6.60;;
4232;SDS011;2130;48.472;11.934;2023-03-05T07:14:23;29.47;;;4.70;;
4232;SDS011;2130;48.472;11.934;2023-03-05T07:17:13;35.57;;;4.97;;
4232;SDS011;2130;48.472;11.934;2023-03-05T07:20:02;30.90;;;4.57;;
4232;SDS011;2130;48.472;11.934;2023-03-05T07:22:52;32.57;;;5.97;;
4232;SDS011;2130;48.472;11.934;2023-03-05T07:25:41;37.70;;;6.53;;
4232;SDS011;2130;48.472;11.934;2023-03-05T07:28:32;33.10;;;5.50;;
4232;SDS011;2130;48.472;11.934;2023-03-05T07:31:22;31.03;;;4.67;;
4232;SDS011;2130;48.472;11.934;2023-03-05T07:34:13;37.67;;;5.30;;
4232;SDS011;2130;48.472;11.934;2023-03-05T07:37:03;35.93;;;5.77;;
4232;SDS011;2130;48.472;11.934;2023-03-05T07:39:52;31.30;;;4.90;;
4232;SDS011;2130;48.472;11.934;2023-03-05T07:42:41;33.10;;;4.60;;
4232;SDS011;2130;48.472;11.934;2023-03-05T07:45:42;28.93;;;4.40;;
4232;SDS011;2130;48.472;11.934;2023-03-05T07:48:32;37.57;;;7.03;;
4232;SDS011;2130;48.472;11.934;2023-03-05T07:51:25;31.50;;;5.10;;
4232;SDS011;2130;48.472;11.934;2023-03-05T07:54:15;30.70;;;4.57;;
4232;SDS011;2130;48.472;11.934;2023-03-05T07:57:04;31.03;;;4.40;;
4232;SDS011;2130;48.472;11.934;2023-03-05T07:59:54;32.70;;;5.07;;
4232;SDS011;2130;48.472;11.934;2023-03-05T08:02:44;29.37;;;4.03;;
4232;SDS011;2130;48.472;11.934;2023-03-05T08:05:37;34.37;;;5.53;;
4232;SDS011;2130;48.472;11.934;2023-03-05T08:08:26;29.97;;;5.17;;
4232;SDS011;2130;48.472;11.934;2023-03-05T08:11:16;30.23;;;5.03;;
4232;SDS011;2130;48.472;11.934;2023-03-05T08:14:05;31.27;;;5.20;;
4232;SDS011;2130;48.472;11.934;2023-03-05T08:16:54;37.27;;;5.40;;
4232;SDS011;2130;48.472;11.934;2023-03-05T08:19:45;30.20;;;5.30;;
4232;SDS011;2130;48.472;11.934;2023-03-05T08:22:34;36.50;;;4.93;;
4232;SDS011;2130;48.472;11.934;2023-03-05T08:25:25;29.97;;;5.27;;
4232;SDS011;2130;48.472;11.934;2023-03-05T08:28:14;34.67;;;5.07;;
4232;SDS011;2130;48.472;11.934;2023-03-05T08:31:07;36.77;;;5.87;;
4232;SDS011;2130;48.472;11.934;2023-03-05T08:33:57;31.83;;;5.40;;
4232;SDS011;2130;48.472;11.934;2023-03-05T08:36:51;33.80;;;4.80;;
4232;SDS011;2130;48.472;11.934;2023-03-05T08:39:41;30.43;;;4.90;;
4232;SDS011;2130;48.472;11.934;2023-03-05T08:42:33;38.27;;;5.53;;
4232;SDS011;2130;48.472;11.934;2023-03-05T08:45:22;29.60;;;4.77;;
4232;SDS011;2130;48.472;11.934;2023-03-05T08:48:12;43.47;;;5.10;;
4232;SDS011;2130;48.472;11.934;2023-03-05T08:51:05;30.30;;;5.13;;
4232;SDS011;2130;48.472;11.934;2023-03-05T08:53:57;31.27;;;4.97;;
4232;SDS011;2130;48.472;11.934;2023-03-05T08:56:48;29.17;;;4.70;;
4232;SDS011;2130;48.472;11.934;2023-03-05T08:59:37;36.27;;;4.70;;
4232;SDS011;2130;48.472;11.934;2023-03-05T09:02:26;31.33;;;5.17;;
4232;SDS011;2130;48.472;11.934;2023-03-05T09:05:16;28.93;;;5.27;;
4232;SDS011;2130;48.472;11.934;2023-03-05T09:08:09;32.57;;;6.07;;
4232;SDS011;2130;48.472;11.934;2023-03-05T09:11:01;31.53;;;5.83;;
4232;SDS011;2130;48.472;11.934;2023-03-05T09:13:52;34.03;;;5.33;;
4232;SDS011;2130;48.472;11.934;2023-03-05T09:16:41;28.70;;;5.27;;
4232;SDS011;2130;48.472;11.934;2023-03-05T09:19:31;33.53;;;5.43;;
4232;SDS011;2130;48.472;11.934;2023-03-05T09:22:20;29.60;;;5.33;;
4232;SDS011;2130;48.472;11.934;2023-03-05T09:25:10;37.03;;;6.10;;
4232;SDS011;2130;48.472;11.934;2023-03-05T09:28:01;32.10;;;5.03;;
4232;SDS011;2130;48.472;11.934;2023-03-05T09:30:50;33.27;;;5.80;;
4232;SDS011;2130;48.472;11.934;2023-03-05T09:33:40;31.80;;;5.43;;
4232;SDS011;2130;48.472;11.934;2023-03-05T09:36:29;32.20;;;5.23;;
4232;SDS011;2130;48.472;11.934;2023-03-05T09:39:19;29.20;;;4.50;;
4232;SDS011;2130;48.472;11.934;2023-03-05T09:42:18;38.50;;;5.77;;
4232;SDS011;2130;48.472;11.934;2023-03-05T09:45:19;34.10;;;4.40;;
4232;SDS011;2130;48.472;11.934;2023-03-05T09:48:12;39.20;;;4.80;;
4232;SDS011;2130;48.472;11.934;2023-03-05T09:51:06;30.63;;;4.77;;
4232;SDS011;2130;48.472;11.934;2023-03-05T09:54:01;30.70;;;5.23;;
4232;SDS011;2130;48.472;11.934;2023-03-05T09:56:54;30.93;;;4.87;;
4232;SDS011;2130;48.472;11.934;2023-03-05T09:59:45;33.70;;;5.20;;
4232;SDS011;2130;48.472;11.934;2023-03-05T10:02:38;28.67;;;4.90;;
4232;SDS011;2130;48.472;11.934;2023-03-05T10:05:35;31.13;;;5.50;;
4232;SDS011;2130;48.472;11.934;2023-03-05T10:08:40;29.80;;;5.27;;
4232;SDS011;2130;48.472;11.934;2023-03-05T10:11:38;30.93;;;5.10;;
4232;SDS011;2130;48.472;11.934;2023-03-05T10:14:31;31.17;;;5.93;;
4232;SDS011;2130;48.472;11.934;2023-03-05T10:17:33;31.00;;;4.50;;
4232;SDS011;2130;48.472;11.934;2023-03-05T10:20:39;29.43;;;4.00;;
4232;SDS011;2130;48.472;11.934;2023-03-05T10:23:45;27.83;;;4.80;;
4232;SDS011;2130;48.472;11.934;2023-03-05T10:26:42;26.10;;;4.23;;
4232;SDS011;2130;48.472;11.934;2023-03-05T10:29:50;31.80;;;5.50;;
4232;SDS011;2130;48.472;11.934;2023-03-05T10:32:47;30.60;;;4.93;;
4232;SDS011;2130;48.472;11.934;2023-03-05T10:36:09;27.23;;;5.40;;
4232;SDS011;2130;48.472;11.934;2023-03-05T10:39:17;26.87;;;4.73;;
4232;SDS011;2130;48.472;11.934;2023-03-05T10:42:28;27.83;;;5.27;;
4232;SDS011;2130;48.472;11.934;2023-03-05T10:45:21;28.13;;;5.03;;
4232;SDS011;2130;48.472;11.934;2023-03-05T10:48:15;27.83;;;4.90;;
4232;SDS011;2130;48.472;11.934;2023-03-05T10:51:14;31.60;;;6.53;;
4232;SDS011;2130;48.472;11.934;2023-03-05T10:54:08;27.50;;;4.07;;
4232;SDS011;2130;48.472;11.934;2023-03-05T10:57:02;27.13;;;5.30;;
4232;SDS011;2130;48.472;11.934;2023-03-05T10:59:53;21.50;;;3.90;;
4232;SDS011;2130;48.472;11.934;2023-03-05T11:02:54;28.30;;;5.07;;
4232;SDS011;2130;48.472;11.934;2023-03-05T11:05:46;23.73;;;5.60;;
4232;SDS011;2130;48.472;11.934;2023-03-05T11:08:38;26.00;;;4.10;;
4232;SDS011;2130;48.472;11.934;2023-03-05T11:11:27;24.00;;;4.50;;
4232;SDS011;2130;48.472;11.934;2023-03-05T11:14:22;23.73;;;5.63;;
4232;SDS011;2130;48.472;11.934;2023-03-05T11:17:24;25.53;;;4.10;;
4232;SDS011;2130;48.472;11.934;2023-03-05T11:20:28;29.17;;;4.77;;
4232;SDS011;2130;48.472;11.934;2023-03-05T11:23:21;30.80;;;4.67;;
4232;SDS011;2130;48.472;11.934;2023-03-05T11:26:16;28.60;;;4.70;;
4232;SDS011;2130;48.472;11.934;2023-03-05T11:29:12;28.23;;;5.43;;
4232;SDS011;2130;48.472;11.934;2023-03-05T11:32:14;23.67;;;4.20;;
4232;SDS011;2130;48.472;11.934;2023-03-05T11:35:04;22.47;;;4.20;;
4232;SDS011;2130;48.472;11.934;2023-03-05T11:38:15;27.77;;;3.70;;
4232;SDS011;2130;48.472;11.934;2023-03-05T11:41:07;29.20;;;5.70;;
4232;SDS011;2130;48.472;11.934;2023-03-05T11:43:57;23.53;;;4.30;;
4232;SDS011;2130;48.472;11.934;2023-03-05T11:46:50;23.53;;;3.77;;
4232;SDS011;2130;48.472;11.934;2023-03-05T11:49:42;24.83;;;4.60;;
4232;SDS011;2130;48.472;11.934;2023-03-05T11:52:35;29.07;;;5.60;;
4232;SDS011;2130;48.472;11.934;2023-03-05T11:55:29;27.43;;;6.60;;
4232;SDS011;2130;48.472;11.934;2023-03-05T11:58:27;27.60;;;5.60;;
4232;SDS011;2130;48.472;11.934;2023-03-05T12:01:20;25.13;;;3.70;;
4232;SDS011;2130;48.472;11.934;2023-03-05T12:04:10;28.43;;;4.23;;
4232;SDS011;2130;48.472;11.934;2023-03-05T12:07:00;30.83;;;4.60;;
4232;SDS011;2130;48.472;11.934;2023-03-05T12:09:52;24.03;;;4.57;;
4232;SDS011;2130;48.472;11.934;2023-03-05T12:12:43;24.70;;;4.33;;
4232;SDS011;2130;48.472;11.934;2023-03-05T12:15:47;25.80;;;5.07;;
4232;SDS011;2130;48.472;11.934;2023-03-05T12:18:45;28.43;;;5.50;;
4232;SDS011;2130;48.472;11.934;2023-03-05T12:21:39;35.57;;;5.20;;
4232;SDS011;2130;48.472;11.934;2023-03-05T12:24:34;27.77;;;5.00;;
4232;SDS011;2130;48.472;11.934;2023-03-05T12:27:31;25.93;;;4.03;;
4232;SDS011;2130;48.472;11.934;2023-03-05T12:33:44;28.63;;;5.20;;
4232;SDS011;2130;48.472;11.934;2023-03-05T12:36:34;25.07;;;3.73;;
4232;SDS011;2130;48.472;11.934;2023-03-05T12:39:49;28.50;;;5.50;;
4232;SDS011;2130;48.472;11.934;2023-03-05T12:45:49;23.93;;;3.83;;
4232;SDS011;2130;48.472;11.934;2023-03-05T12:48:43;29.13;;;4.70;;
4232;SDS011;2130;48.472;11.934;2023-03-05T12:51:34;23.70;;;4.50;;
4232;SDS011;2130;48.472;11.934;2023-03-05T12:54:27;24.90;;;4.70;;
4232;SDS011;2130;48.472;11.934;2023-03-05T12:57:18;24.10;;;4.47;;
4232;SDS011;2130;48.472;11.934;2023-03-05T13:00:09;24.03;;;4.70;;
4232;SDS011;2130;48.472;11.934;2023-03-05T13:02:59;21.83;;;3.60;;
4232;SDS011;2130;48.472;11.934;2023-03-05T13:05:52;21.23;;;3.30;;
4232;SDS011;2130;48.472;11.934;2023-03-05T13:08:42;21.97;;;3.50;;
4232;SDS011;2130;48.472;11.934;2023-03-05T13:11:31;20.97;;;3.80;;
4232;SDS011;2130;48.472;11.934;2023-03-05T13:14:25;21.73;;;3.17;;
4232;SDS011;2130;48.472;11.934;2023-03-05T13:17:29;20.60;;;3.53;;
4232;SDS011;2130;48.472;11.934;2023-03-05T13:20:23;20.50;;;3.20;;
4232;SDS011;2130;48.472;11.934;2023-03-05T13:23:22;22.13;;;2.90;;
4232;SDS011;2130;48.472;11.934;2023-03-05T13:26:13;18.37;;;2.40;;
4232;SDS011;2130;48.472;11.934;2023-03-05T13:29:05;19.00;;;3.17;;
4232;SDS011;2130;48.472;11.934;2023-03-05T13:31:57;25.87;;;3.90;;
4232;SDS011;2130;48.472;11.934;2023-03-05T13:34:48;25.80;;;3.90;;
4232;SDS011;2130;48.472;11.934;2023-03-05T13:37:44;24.43;;;4.00;;
4232;SDS011;2130;48.472;11.934;2023-03-05T13:40:35;22.10;;;3.40;;
4232;SDS011;2130;48.472;11.934;2023-03-05T13:43:27;18.50;;;2.63;;
4232;SDS011;2130;48.472;11.934;2023-03-05T13:46:26;26.20;;;3.10;;
4232;SDS011;2130;48.472;11.934;2023-03-05T13:49:18;20.00;;;3.00;;
4232;SDS011;2130;48.472;11.934;2023-03-05T13:52:10;19.37;;;2.63;;
4232;SDS011;2130;48.472;11.934;2023-03-05T13:55:02;21.50;;;3.37;;
4232;SDS011;2130;48.472;11.934;2023-03-05T13:57:59;21.30;;;3.20;;
4232;SDS011;2130;48.472;11.934;2023-03-05T14:00:48;23.73;;;3.03;;
4232;SDS011;2130;48.472;11.934;2023-03-05T14:03:51;20.00;;;3.03;;
4232;SDS011;2130;48.472;11.934;2023-03-05T14:06:45;22.50;;;3.27;;
4232;SDS011;2130;48.472;11.934;2023-03-05T14:09:43;20.23;;;2.43;;
4232;SDS011;2130;48.472;11.934;2023-03-05T14:12:35;22.33;;;4.10;;
4232;SDS011;2130;48.472;11.934;2023-03-05T14:15:29;20.83;;;3.20;;
4232;SDS011;2130;48.472;11.934;2023-03-05T14:18:19;20.97;;;2.90;;
4232;SDS011;2130;48.472;11.934;2023-03-05T14:21:09;25.53;;;2.57;;
4232;SDS011;2130;48.472;11.934;2023-03-05T14:23:59;31.67;;;3.33;;
4232;SDS011;2130;48.472;11.934;2023-03-05T14:27:00;19.50;;;2.90;;
4232;SDS011;2130;48.472;11.934;2023-03-05T14:29:51;22.53;;;3.23;;
4232;SDS011;2130;48.472;11.934;2023-03-05T14:32:43;18.70;;;3.33;;
4232;SDS011;2130;48.472;11.934;2023-03-05T14:35:32;20.80;;;3.17;;
4232;SDS011;2130;48.472;11.934;2023-03-05T14:38:23;20.30;;;2.70;;
4232;SDS011;2130;48.472;11.934;2023-03-05T14:41:17;19.23;;;2.60;;
4232;SDS011;2130;48.472;11.934;2023-03-05T14:44:09;22.60;;;3.23;;
4232;SDS011;2130;48.472;11.934;2023-03-05T14:47:00;23.63;;;2.97;;
4232;SDS011;2130;48.472;11.934;2023-03-05T14:49:50;20.80;;;2.73;;
4232;SDS011;2130;48.472;11.934;2023-03-05T14:52:40;19.97;;;2.60;;
4232;SDS011;2130;48.472;11.934;2023-03-05T14:55:29;20.03;;;3.23;;
4232;SDS011;2130;48.472;11.934;2023-03-05T14:58:20;19.53;;;2.87;;
4232;SDS011;2130;48.472;11.934;2023-03-05T15:01:12;19.63;;;2.70;;
4232;SDS011;2130;48.472;11.934;2023-03-05T15:04:01;20.00;;;3.03;;
4232;SDS011;2130;48.472;11.934;2023-03-05T15:06:52;22.30;;;2.70;;
4232;SDS011;2130;48.472;11.934;2023-03-05T15:09:41;19.03;;;2.67;;
4232;SDS011;2130;48.472;11.934;2023-03-05T15:12:30;20.73;;;2.67;;
4232;SDS011;2130;48.472;11.934;2023-03-05T15:15:20;18.90;;;2.40;;
4232;SDS011;2130;48.472;11.934;2023-03-05T15:18:09;20.10;;;2.80;;
4232;SDS011;2130;48.472;11.934;2023-03-05T15:21:03;20.87;;;2.43;;
4232;SDS011;2130;48.472;11.934;2023-03-05T15:23:54;21.90;;;3.33;;
4232;SDS011;2130;48.472;11.934;2023-03-05T15:26:43;19.00;;;2.70;;
4232;SDS011;2130;48.472;11.934;2023-03-05T15:29:35;19.43;;;2.80;;
4232;SDS011;2130;48.472;11.934;2023-03-05T15:32:24;22.37;;;2.50;;
4232;SDS011;2130;48.472;11.934;2023-03-05T15:35:14;20.37;;;2.57;;
4232;SDS011;2130;48.472;11.934;2023-03-05T15:38:03;22.47;;;2.80;;
4232;SDS011;2130;48.472;11.934;2023-03-05T15:40:54;18.50;;;2.50;;
4232;SDS011;2130;48.472;11.934;2023-03-05T15:43:47;19.40;;;2.30;;
4232;SDS011;2130;48.472;11.934;2023-03-05T15:46:36;19.93;;;2.47;;
4232;SDS011;2130;48.472;11.934;2023-03-05T15:49:26;21.60;;;3.47;;
4232;SDS011;2130;48.472;11.934;2023-03-05T15:52:15;20.57;;;2.60;;
4232;SDS011;2130;48.472;11.934;2023-03-05T15:55:05;20.70;;;2.50;;
4232;SDS011;2130;48.472;11.934;2023-03-05T15:57:56;19.63;;;2.60;;
4232;SDS011;2130;48.472;11.934;2023-03-05T16:00:45;19.50;;;2.77;;
4232;SDS011;2130;48.472;11.934;2023-03-05T16:03:35;19.70;;;2.73;;
4232;SDS011;2130;48.472;11.934;2023-03-05T16:06:24;21.90;;;3.00;;
4232;SDS011;2130;48.472;11.934;2023-03-05T16:09:14;21.10;;;3.07;;
4232;SDS011;2130;48.472;11.934;2023-03-05T16:12:07;20.70;;;2.20;;
4232;SDS011;2130;48.472;11.934;2023-03-05T16:14:58;20.70;;;2.30;;
4232;SDS011;2130;48.472;11.934;2023-03-05T16:17:48;19.63;;;2.57;;
4232;SDS011;2130;48.472;11.934;2023-03-05T16:20:40;22.67;;;2.60;;
4232;SDS011;2130;48.472;11.934;2023-03-05T16:23:29;19.40;;;2.53;;
4232;SDS011;2130;48.472;11.934;2023-03-05T16:26:18;20.30;;;2.90;;
4232;SDS011;2130;48.472;11.934;2023-03-05T16:29:07;21.43;;;2.63;;
4232;SDS011;2130;48.472;11.934;2023-03-05T16:31:58;22.63;;;3.10;;
4232;SDS011;2130;48.472;11.934;2023-03-05T16:34:48;24.13;;;2.87;;
4232;SDS011;2130;48.472;11.934;2023-03-05T16:37:38;21.10;;;3.17;;
4232;SDS011;2130;48.472;11.934;2023-03-05T16:40:28;20.60;;;2.70;;
4232;SDS011;2130;48.472;11.934;2023-03-05T16:43:38;25.00;;;3.80;;
4232;SDS011;2130;48.472;11.934;2023-03-05T16:46:28;20.63;;;3.17;;
4232;SDS011;2130;48.472;11.934;2023-03-05T16:49:22;26.00;;;2.97;;
4232;SDS011;2130;48.472;11.934;2023-03-05T16:52:11;24.67;;;3.83;;
4232;SDS011;2130;48.472;11.934;2023-03-05T16:55:06;23.07;;;3.97;;
4232;SDS011;2130;48.472;11.934;2023-03-05T16:57:55;23.77;;;3.97;;
4232;SDS011;2130;48.472;11.934;2023-03-05T17:00:45;21.93;;;3.60;;
4232;SDS011;2130;48.472;11.934;2023-03-05T17:03:35;21.80;;;3.23;;
4232;SDS011;2130;48.472;11.934;2023-03-05T17:06:30;38.83;;;3.40;;
4232;SDS011;2130;48.472;11.934;2023-03-05T17:09:21;21.00;;;2.80;;
4232;SDS011;2130;48.472;11.934;2023-03-05T17:12:10;22.70;;;3.20;;
4232;SDS011;2130;48.472;11.934;2023-03-05T17:15:00;21.10;;;2.67;;
4232;SDS011;2130;48.472;11.934;2023-03-05T17:17:50;27.23;;;3.70;;
4232;SDS011;2130;48.472;11.934;2023-03-05T17:20:39;21.53;;;2.27;;